Detailed Flight Report of Nuri Burak ERKAL ;
Number CXD079 
Departure Aerodrome HAAB 
Arrival Aerodrome FSIA

Map generated by the Great Circle Mapper - copyright © Karl L. Swartz.

Pilot In Command CXD079 : Nuri Burak Erkal
Aircraft B773 / TC-NZL
Date Of Flight 2020-06-17
Departure Time 12:28 UTC
Arrival Time 16:17 UTC
Block Time 03:49
Distance 1,424 Nm.
Used Fuel 32,767 Lbs.
   
Detailed Flight Log [2020/06/17 12:03:00]
Flight IATA:C001
Pilot Number:079
Company ICAO:CXD
Aircraft Type:B773
Aircraft Registration:TC-NZL
Departing Airport: HAAB
Destination Airport: FSIA
Alternate Airport:FMNN
Online: VATSIM
Route:IMKIT W15 MAV UM313G MOGDU UN304G EGSAP UT386G EGLOM UM313 MOGUD T133 FS122 T116 UNBED
Flight Level:FL370
No pause
12:03 Zero fuel Weight: 463695 Lbs, Fuel Weight: 95749 Lbs
12:03 VATSIM:HAAB 161500Z 21003KT 9999 BKN024 BKN080 20/13 Q1025
12:03 VATSIM:FSIA 161700Z 13017KT 090V180 9999 FEW018CB SCT022 28/24 Q1011 NOSIG
12:06 Parking Brakes off
12:22 VR= 171 Knots
12:22 V2= 174 Knots
12:22 Take-off
12:22 Take off Weight: 557465 Lbs
12:22 Wind: 080º @ 006 Knots Heading: 253º
12:22 POS N08º 58´ 28´´ E038º 47´ 29´´
12:22 N11 100 N12 100
12:22 Flaps:5º at 175 Knots
12:22 Gear Up: 172 Knots
12:24 Flaps:1º at 197 Knots
12:24 Flaps:Up at 209 Knots
12:37 Wind
:090º@031 Knots Heading: 162º Ground Speed: 476 Knots Altitude 34842 ft
12:38 TOC
12:38 Fuel Weight: 85446 Lb
12:52 Wind:093º@034 Knots Heading: 115º Ground Speed: 451 Knots Altitude 37162 ft
13:07 Wind:095º@031 Knots Heading: 124º Ground Speed: 454 Knots Altitude 37030 ft
13:22 Wind:095º@028 Knots Heading: 118º Ground Speed: 456 Knots Altitude 36998 ft
13:37 Wind:099º@030 Knots Heading: 118º Ground Speed: 453 Knots Altitude 37037 ft
13:52 Wind:104º@026 Knots Heading: 119º Ground Speed: 457 Knots Altitude 36975 ft
14:07 Wind:107º@025 Knots Heading: 120º Ground Speed: 459 Knots Altitude 36955 ft
14:22 Wind:104º@028 Knots Heading: 120º Ground Speed: 456 Knots Altitude 36938 ft
14:37 Wind:095º@025 Knots Heading: 120º Ground Speed: 460 Knots Altitude 36922 ft
14:52 Wind:087º@024 Knots Heading: 119º Ground Speed: 463 Knots Altitude 36916 ft
15:01 TOD
15:01 Fuel Weight:
49715 Lb
15:07 Wind:279º@010 Knots Heading: 134º Ground Speed: 422 Knots Altitude 25649 ft
15:22 Wind:139º@018 Knots Heading: 101º Ground Speed: 232 Knots Altitude 5895 ft
15:27 Gear Down: 335 Knots
15:31 Flaps:1º at 213 Knots
15:31 Flaps:5º at 182 Knots
15:31 Flaps:15º at 165 Knots
15:31 Flaps:30º at 159 Knots
15:32 Flaps:35º at 150 Knots
15:32 Flaps:Full at 151 Knots
15:36 Gear Up: 177 Knots
15:36 Flaps:35º at 172 Knots
15:36 Flaps:30º at 131 Knots
15:37 Wind:126º@013 Knots Heading: 117º Ground Speed: 117 Knots Altitude 1686 ft
15:37 Flaps:15º at 125 Knots
15:37 Flaps:5º at 148 Knots
15:37 Flaps:1º at 182 Knots
15:37 Flaps:Up at 212 Knots
15:40 Gear Down: 202 Knots
15:40 Flaps:1º at 198 Knots
15:41 Flaps:5º at 173 Knots
15:41 Flaps:15º at 167 Knots
15:41 Flaps:30º at 172 Knots
15:41 Flaps:35º at 161 Knots
15:41 Flaps:Full at 165 Knots
15:48 TouchDow
n:Rate -246 ft/min Speed: 132 Knots
15:48 VATSIM:FSIA 162100Z 14006KT 060V210 9999 FEW018CB SCT022 28/24 Q1011 NOSIG
15:48 Land
15:48 Wind:132º@006 Knots
15:48 Heading: 126º
15:48 Flight Duration: 03:26
15:48 Landing Weight: 502560 Lbs
15:48 POS S04º 40´ 32´´ E055º 31´ 25´´
15:55 Parking brakes on
15:55 Block to Block Duration: 03:49
15:55 Final Fuel: 38295 Lbls
15:55 Spent Fuel: 57453 Lbls
15:55 Flight Length: 1424 NM
15:55 TOD Land Length: 219 NM

Text Link of Flight Log http://www.candanair.net/acars/logs/CXD07920200617120300.txt
   

[ Back ]